Terminal Aerodrome Forecast
Issued by NWS Memphis, TN

Home | Current Version | Previous Version | Text Only | Print | Product List | Glossary On
Versions: 1 2 3 4 5 6 7 8 9 10 11 12 13 14 15 16 17 18 19 20 21 22 23 24 25
000
FTUS44 KMEG 200520
TAFMEM
TAF
KMEM 200520Z 2006/2106 12003KT P6SM FEW200
      TEMPO 2009/2013 4SM BR
     FM201500 16007KT P6SM SCT250
     FM210300 17006KT P6SM VCSH BKN050=

USA.gov is the U.S. government's official web portal to all federal, state and local government web resources and services.